Hlavní strana
METAR-TAF:

METAR-TAF

Letiště :

Mora–Siljan

Mora, Švédsko

zeměpisná šířka: 60-57-31N, zeměpisná délka: 14-30-40E, výška: 193 m

Aktuální stav počasí

Zpráva byla vytvořena před 28 minutami, v 11:50 UTC
Jihojihovýchodní vítr 11 kt
Teplota 18°C
Vlhkost vzduchu 34%
Tlak 1003 hPa
Viditelnost 10 km a více

METAR: ESKM 041150Z AUTO 16011KT 9999 R16/P2000N R34///// NCD 18/02 Q1003

Čas: 14:18 (12:18 UTC)


TAF: chybějící

Stav a předpovědi počasí z více než 4 000 letišť (zprávy METAR a TAF).

Červené a žluté tečky na mapě představují dostupné meteorologické stanice.

Když kurzor umístíte na tečku, zobrazí se název stanice.

Pak kliknutím zobrazíte stav a předpověď počasí.

Chcete-li změnit mapu, kliknutím na zelené tlačítko se znaménkem +mapu přiblížíte, kliknutím na zelené tlačítko se znaménkem – mapu oddálíte a kliknutím na zelené šipky přejdete na sousední mapy.


METAR-TAF: